Time;durP1;ratioP1;P1;durP2;ratioP2;P2;SDS_P1;SDS_P2;PMS_P1;PMS_P2;Temp;Humidity;BMP_temperature;BMP_pressure;BME280_temperature;BME280_humidity;BME280_pressure;Samples;Min_cycle;Max_cycle;Signal;HPM_P1;HPM_P2
2022/03/22 00:01:01;;;;;;;26.17;16.63;;;;;;;;;;5025939;28;20136;-58
2022/03/22 00:03:28;;;;;;;25.52;16.17;;;;;;;;;;5030165;28;20441;-59
2022/03/22 00:05:55;;;;;;;25.23;16.25;;;;;;;;;;5026489;28;20030;-59
2022/03/22 00:08:21;;;;;;;27.73;16.75;;;;;;;;;;5026249;28;20429;-59
2022/03/22 00:10:47;;;;;;;27.35;16.85;;;;;;;;;;5028054;28;20025;-59
2022/03/22 00:13:13;;;;;;;24.30;16.70;;;;;;;;;;5023199;28;20040;-59
2022/03/22 00:15:39;;;;;;;22.63;15.88;;;;;;;;;;5030343;28;20079;-59
2022/03/22 00:18:05;;;;;;;26.58;16.40;;;;;;;;;;5028322;28;20373;-59
2022/03/22 00:20:33;;;;;;;24.48;15.60;;;;;;;;;;5026092;28;20044;-59
2022/03/22 00:22:59;;;;;;;23.25;16.35;;;;;;;;;;5025783;28;20060;-59
2022/03/22 00:25:25;;;;;;;23.88;16.52;;;;;;;;;;5029501;28;20075;-59
2022/03/22 00:27:55;;;;;;;25.85;16.30;;;;;;;;;;5027172;28;20025;-60
2022/03/22 00:30:25;;;;;;;25.60;15.40;;;;;;;;;;5026313;28;20051;-60
2022/03/22 00:32:54;;;;;;;24.42;16.25;;;;;;;;;;5023877;28;20361;-60
2022/03/22 00:35:39;;;;;;;24.60;16.27;;;;;;;;;;5024036;28;20021;-60
2022/03/22 00:38:06;;;;;;;27.08;16.48;;;;;;;;;;5025648;28;20036;-60
2022/03/22 00:40:32;;;;;;;22.55;16.15;;;;;;;;;;5028732;28;20028;-59
2022/03/22 00:42:58;;;;;;;25.10;16.30;;;;;;;;;;5031178;28;20033;-59
2022/03/22 00:45:30;;;;;;;26.40;16.75;;;;;;;;;;5024939;28;20428;-59
2022/03/22 00:47:57;;;;;;;28.55;16.50;;;;;;;;;;5039702;28;20461;-59
2022/03/22 00:50:28;;;;;;;27.95;16.40;;;;;;;;;;5025039;28;20047;-59
2022/03/22 00:52:55;;;;;;;22.92;15.85;;;;;;;;;;5027990;28;20083;-59
2022/03/22 00:55:24;;;;;;;26.08;16.65;;;;;;;;;;5027405;28;20032;-59
2022/03/22 00:57:50;;;;;;;27.20;16.75;;;;;;;;;;5026903;28;20063;-59
2022/03/22 01:00:16;;;;;;;25.05;16.13;;;;;;;;;;5023020;28;20109;-59
2022/03/22 01:02:49;;;;;;;29.70;16.42;;;;;;;;;;5037557;28;20035;-58
2022/03/22 01:05:17;;;;;;;26.48;16.85;;;;;;;;;;5027011;28;20049;-59
2022/03/22 01:07:45;;;;;;;26.00;16.40;;;;;;;;;;5026590;28;20475;-59
2022/03/22 01:10:13;;;;;;;22.38;15.10;;;10.40;99.90;;;;;;5020556;28;20570;-59
2022/03/22 01:12:40;;;;;;;24.92;16.75;;;;;;;;;;5025938;28;20030;-60
2022/03/22 01:15:10;;;;;;;25.45;16.10;;;;;;;;;;5029974;28;20021;-59
2022/03/22 01:17:38;;;;;;;27.02;16.45;;;;;;;;;;5025959;28;20118;-59
2022/03/22 01:20:05;;;;;;;22.65;15.80;;;;;;;;;;5025948;28;20443;-58
2022/03/22 01:22:31;;;;;;;26.73;16.20;;;;;;;;;;5020658;28;20413;-59
2022/03/22 01:24:57;;;;;;;28.55;16.92;;;;;;;;;;5020586;28;20400;-60
2022/03/22 01:27:23;;;;;;;27.42;16.05;;;;;;;;;;5023654;28;20029;-59
2022/03/22 01:29:49;;;;;;;24.55;16.88;;;;;;;;;;5024408;28;20033;-59
2022/03/22 01:32:16;;;;;;;25.55;16.70;;;;;;;;;;5021213;28;20033;-58
2022/03/22 01:34:45;;;;;;;26.23;15.80;;;;;;;;;;5027238;28;20021;-59
2022/03/22 01:37:11;;;;;;;30.08;16.85;;;;;;;;;;5022884;28;20079;-59
2022/03/22 01:39:37;;;;;;;24.77;16.35;;;;;;;;;;5028478;28;20091;-59
2022/03/22 01:42:04;;;;;;;25.55;16.90;;;;;;;;;;5028839;28;20528;-59
2022/03/22 01:44:30;;;;;;;27.70;16.67;;;;;;;;;;5022804;28;20030;-58
2022/03/22 01:47:03;;;;;;;24.27;16.05;;;;;;;;;;5028020;28;20095;-59
2022/03/22 01:49:29;;;;;;;24.38;16.48;;;;;;;;;;5023980;28;20509;-59
2022/03/22 01:51:56;;;;;;;24.52;16.73;;;;;;;;;;5025647;28;20100;-59
2022/03/22 01:54:22;;;;;;;24.45;16.38;;;;;;;;;;5025034;28;20112;-59
2022/03/22 01:56:49;;;;;;;24.05;15.95;;;;;;;;;;5031095;28;20032;-59
2022/03/22 01:59:15;;;;;;;25.27;16.42;;;;;;;;;;5024407;28;20022;-60
2022/03/22 02:07:14;;;;;;;24.80;16.10;;;;;;;;;;5021868;28;20194;-59
2022/03/22 02:09:40;;;;;;;23.15;15.65;;;;;;;;;;5022884;28;20036;-59
2022/03/22 02:12:06;;;;;;;29.02;16.20;;;;;;;;;;5023325;28;20025;-59
2022/03/22 02:14:32;;;;;;;27.20;16.27;;;;;;;;;;5025104;28;20987;-59
2022/03/22 02:16:59;;;;;;;23.00;15.77;;;;;;;;;;5036326;28;20052;-58
2022/03/22 02:19:25;;;;;;;24.42;16.15;;;;;;;;;;5025559;28;20106;-59
2022/03/22 02:21:55;;;;;;;24.08;15.88;;;;;;;;;;5026526;28;20017;-59
2022/03/22 02:24:21;;;;;;;23.35;16.42;;;;;;;;;;5029424;28;20033;-59
2022/03/22 02:26:47;;;;;;;23.90;16.35;;;;;;;;;;5021966;28;20401;-59
2022/03/22 02:29:13;;;;;;;28.48;15.90;;;;;;;;;;5025647;28;20017;-58
2022/03/22 02:31:39;;;;;;;29.05;16.30;;;;;;;;;;5022291;28;20029;-59
2022/03/22 02:34:05;;;;;;;26.98;16.05;;;;;;;;;;5024459;28;20109;-59
2022/03/22 02:36:31;;;;;;;25.08;15.98;;;;;;;;;;5024505;28;20037;-60
2022/03/22 02:38:57;;;;;;;25.05;16.15;;;;;;;;;;5023782;28;20184;-59
2022/03/22 02:41:27;;;;;;;25.88;16.92;;;;;;;;;;5022291;28;20026;-59
2022/03/22 02:43:53;;;;;;;26.52;16.77;;;;;;;;;;5033387;28;20144;-59
2022/03/22 02:46:20;;;;;;;26.75;15.90;;;;;;;;;;5023909;28;20145;-59
2022/03/22 02:48:46;;;;;;;25.33;16.85;;;;;;;;;;5028091;28;20436;-60
2022/03/22 02:51:12;;;;;;;23.48;16.42;;;;;;;;;;5030886;28;20021;-59
2022/03/22 02:53:39;;;;;;;23.42;15.77;;;;;;;;;;5024191;28;20497;-59
2022/03/22 02:56:05;;;;;;;26.35;15.60;;;;;;;;;;5023495;28;20028;-59
2022/03/22 02:58:31;;;;;;;23.63;16.20;;;;;;;;;;5027559;28;20566;-59
2022/03/22 03:00:57;;;;;;;23.90;15.35;;;;;;;;;;5027745;28;20025;-60
2022/03/22 03:03:23;;;;;;;22.40;15.50;;;;;;;;;;5028223;28;20344;-58
2022/03/22 03:05:49;;;;;;;22.63;15.38;;;;;;;;;;5025828;28;20030;-59
2022/03/22 03:08:16;;;;;;;23.50;16.15;;;;;;;;;;5031865;28;20477;-59
2022/03/22 03:10:42;;;;;;;22.30;15.32;;;;;;;;;;5023860;28;20104;-59
2022/03/22 03:13:08;;;;;;;23.65;15.65;;;;;;;;;;5024681;28;20472;-58
2022/03/22 03:15:34;;;;;;;22.08;15.43;;;;;;;;;;5029556;28;20029;-59
2022/03/22 03:18:01;;;;;;;25.10;15.55;;;;;;;;;;5029264;28;20458;-59
2022/03/22 03:20:27;;;;;;;26.10;16.42;;;;;;;;;;5028998;28;20462;-59
2022/03/22 03:22:54;;;;;;;24.42;16.08;;;;;;;;;;5029844;28;20303;-59
2022/03/22 03:25:20;;;;;;;23.85;15.95;;;;;;;;;;5027713;28;20522;-59
2022/03/22 03:27:46;;;;;;;23.05;15.57;;;;;;;;;;5025690;28;20102;-59
2022/03/22 03:30:13;;;;;;;25.98;15.55;;;;;;;;;;5029056;28;20627;-59
2022/03/22 03:32:39;;;;;;;25.95;15.63;;;;;;;;;;5028732;28;20100;-60
2022/03/22 03:35:05;;;;;;;22.30;14.32;;;;;;;;;;5032473;28;20108;-59
2022/03/22 03:37:34;;;;;;;22.60;15.32;;;;;;;;;;5023404;28;20168;-60
2022/03/22 03:40:00;;;;;;;22.40;15.38;;;;;;;;;;5027876;28;20071;-58
2022/03/22 03:42:26;;;;;;;19.95;14.25;;;;;;;;;;5023844;28;20038;-60
2022/03/22 03:47:37;;;;;;;22.20;15.35;;;;;;;;;;5030485;28;20393;-60
2022/03/22 03:50:05;;;;;;;24.95;15.30;;;;;;;;;;5025868;28;20021;-60
2022/03/22 03:52:35;;;;;;;23.98;15.40;;;;;;;;;;5029892;28;20044;-59
2022/03/22 03:55:01;;;;;;;25.27;15.48;;;;;;;;;;5021115;28;20143;-59
2022/03/22 03:57:29;;;;;;;24.65;15.77;;;;;;;;;;5025028;28;20048;-59
2022/03/22 03:59:56;;;;;;;25.08;15.25;;;;;;;;;;5023021;28;20108;-59
2022/03/22 04:02:23;;;;;;;23.00;15.95;;;;;;;;;;5029464;28;20028;-60
2022/03/22 04:04:52;;;;;;;20.42;14.65;;;;;;;;;;5024484;28;20087;-60
2022/03/22 04:07:26;;;;;;;22.38;14.77;;;;;;;;;;5023602;28;20029;-59
2022/03/22 04:09:54;;;;;;;;;;;;;;;;;;5023297;28;20080;-60
2022/03/22 04:12:20;;;;;;;28.60;15.57;;;;;;;;;;5026253;28;20229;-59
2022/03/22 04:14:48;;;;;;;24.40;15.32;;;;;;;;;;5028919;28;20092;-59
2022/03/22 04:17:15;;;;;;;21.05;15.02;;;;;;;;;;5034903;28;20399;-60
2022/03/22 04:19:41;;;;;;;24.17;15.52;;;;;;;;;;5023683;28;20079;-59
2022/03/22 04:22:08;;;;;;;27.00;15.90;;;;;;;;;;5028434;28;20048;-59
2022/03/22 04:24:34;;;;;;;21.05;15.30;;;;;;;;;;5021458;28;20083;-59
2022/03/22 04:32:42;;;;;;;22.58;15.10;;;;;;;;;;5030518;28;20037;-60
2022/03/22 04:35:08;;;;;;;24.65;16.00;;;;;;;;;;5023180;28;20021;-59
2022/03/22 04:37:34;;;;;;;22.75;15.80;;;;;;;;;;5030784;28;20037;-59
2022/03/22 04:40:00;;;;;;;22.88;15.07;;;;;;;;;;5021956;28;20392;-59
2022/03/22 04:42:26;;;;;;;23.35;15.85;;;;;;;;;;5024240;28;20068;-59
2022/03/22 04:44:53;;;;;;;24.48;15.35;;;;;;;;;;5021497;28;20595;-59
2022/03/22 04:47:19;;;;;;;23.23;15.43;;;;;;;;;;5020761;28;20481;-60
2022/03/22 04:49:45;;;;;;;24.45;15.38;;;;;;;;;;5025282;28;20064;-59
2022/03/22 04:57:41;;;;;;;23.98;15.48;;;;;;;;;;5024182;28;20041;-59
2022/03/22 05:00:07;;;;;;;23.35;15.52;;;;;;;;;;5024308;28;20025;-60
2022/03/22 05:02:33;;;;;;;24.95;15.93;;;;;;;;;;5025111;28;20605;-59
2022/03/22 05:05:00;;;;;;;22.30;15.55;;;;;;;;;;5025815;28;20664;-60
2022/03/22 05:07:26;;;;;;;22.17;15.25;;;;;;;;;;5022903;28;20042;-60
2022/03/22 05:09:52;;;;;;;23.05;15.80;;;;;;;;;;5025049;28;20626;-60
2022/03/22 05:12:18;;;;;;;22.42;15.95;;;;;;;;;;5040166;28;21071;-60
2022/03/22 05:14:50;;;;;;;25.80;16.75;;;;;;;;;;5023862;28;20461;-60
2022/03/22 05:17:21;;;;;;;24.02;16.23;;;;;;;;;;5028402;28;20137;-59
2022/03/22 05:19:48;;;;;;;23.35;15.75;;;;;;;;;;5020536;28;20036;-59
2022/03/22 05:22:14;;;;;;;22.58;15.93;;;;;;;;;;5032545;28;20029;-59
2022/03/22 05:24:41;;;;;;;25.20;15.95;;;;;;;;;;5024299;28;20041;-59
2022/03/22 05:27:07;;;;;;;25.00;16.10;;;;;;;;;;5027119;28;20032;-58
2022/03/22 05:29:33;;;;;;;21.27;15.55;;;;;;;;;;5021636;28;20029;-60
2022/03/22 05:32:00;;;;;;;24.52;15.23;;;;;;;;;;5023087;28;20021;-59
2022/03/22 05:34:26;;;;;;;23.00;15.43;;;;;;;;;;5025797;28;20526;-59
2022/03/22 05:36:52;;;;;;;25.08;16.02;;;;;;;;;;5024824;28;20093;-60
2022/03/22 05:39:18;;;;;;;22.95;14.77;;;;;;;;;;5027291;28;20020;-57
2022/03/22 05:41:45;;;;;;;22.13;14.57;;;;;;;;;;5021451;28;20025;-59
2022/03/22 05:44:12;;;;;;;21.33;13.93;;;;;;;;;;5025219;28;20527;-58
2022/03/22 05:46:39;;;;;;;25.98;15.20;;;;;;;;;;5027359;28;20615;-59
2022/03/22 05:49:05;;;;;;;20.92;14.68;;;;;;;;;;5031109;28;20028;-59
2022/03/22 05:51:31;;;;;;;25.77;14.60;;;;;;;;;;5025844;28;20034;-59
2022/03/22 05:53:57;;;;;;;21.23;14.18;;;;;;;;;;5025069;28;20025;-59
2022/03/22 05:56:23;;;;;;;22.88;13.52;;;;;;;;;;5020457;28;20432;-59
2022/03/22 05:58:49;;;;;;;25.73;14.65;;;;;;;;;;5021222;28;20033;-60
2022/03/22 06:01:16;;;;;;;21.60;14.10;;;;;;;;;;5022210;28;20029;-57
2022/03/22 06:03:41;;;;;;;22.73;14.68;;;;;;;;;;5020098;28;20025;-56
2022/03/22 06:06:07;;;;;;;24.40;14.15;;;;;;;;;;5024543;28;20048;-56
2022/03/22 06:08:34;;;;;;;20.20;13.45;;;;;;;;;;5023916;28;20033;-57
2022/03/22 06:11:00;;;;;;;23.13;14.02;;;;;;;;;;5029957;28;20025;-56
2022/03/22 06:13:26;;;;;;;19.00;12.98;;;;;;;;;;5025739;28;20029;-58
2022/03/22 06:15:52;;;;;;;20.65;14.23;;;;;;;;;;5020044;28;20393;-58
2022/03/22 06:18:18;;;;;;;142.82;100.20;;;;;;;;;;5023234;28;20069;-57
2022/03/22 06:20:44;;;;;;;75.03;50.22;;;;;;;;;;5022134;28;20030;-58
2022/03/22 06:23:15;;;;;;;31.65;20.70;;;;;;;;;;5022293;28;20061;-58
2022/03/22 06:25:42;;;;;;;25.20;15.48;;;;;;;;;;5025140;28;20057;-58
2022/03/22 06:28:09;;;;;;;23.77;14.32;;;;;;;;;;5023417;28;20044;-58
2022/03/22 06:30:36;;;;;;;22.77;13.95;;;;;;;;;;5025873;28;20029;-55
2022/03/22 06:33:08;;;;;;;23.58;13.13;;;;;;;;;;5043085;28;20920;-57
2022/03/22 06:35:34;;;;;;;20.38;13.00;;;;;;;;;;5028688;28;20717;-57
2022/03/22 06:38:01;;;;;;;19.55;13.45;;;;;;;;;;5032725;28;20041;-58
2022/03/22 06:40:29;;;;;;;21.55;12.70;;;;;;;;;;5028850;28;20041;-57
2022/03/22 06:42:55;;;;;;;22.65;12.98;;;;;;;;;;5029063;28;20032;-57
2022/03/22 06:45:21;;;;;;;20.35;12.90;;;;;;;;;;5031620;28;20056;-58
2022/03/22 06:47:48;;;;;;;22.73;13.15;;;;;;;;;;5028278;28;20606;-58
2022/03/22 06:50:15;;;;;;;22.95;13.55;;;;;;;;;;5030856;28;20027;-55
2022/03/22 06:52:41;;;;;;;23.05;14.05;;;;;;;;;;5027600;28;20067;-58
2022/03/22 06:55:08;;;;;;;21.48;13.43;;;;;;;;;;5028830;28;20034;-55
2022/03/22 06:57:34;;;;;;;20.02;12.48;;;;;;;;;;5031145;28;20076;-57
2022/03/22 07:00:00;;;;;;;21.85;13.38;;;;;;;;;;5031596;28;20031;-57
2022/03/22 07:02:27;;;;;;;19.40;12.70;;;;;;;;;;5029046;28;20037;-57
2022/03/22 07:04:53;;;;;;;22.55;13.27;;;;;;;;;;5031982;28;20040;-57
2022/03/22 07:07:19;;;;;;;21.02;13.20;;;;;;;;;;5025187;28;20041;-55
2022/03/22 07:09:46;;;;;;;24.45;17.00;;;;;;;;;;5031041;28;20085;-58
2022/03/22 07:12:13;;;;;;;36.03;23.98;;;;;;;;;;5030422;28;20022;-57
2022/03/22 07:14:40;;;;;;;20.40;13.65;;;;;;;;;;5026375;28;20033;-54
2022/03/22 07:17:07;;;;;;;20.27;12.82;;;;;;;;;;5026383;28;20036;-57
2022/03/22 07:19:34;;;;;;;17.88;12.18;;;;;;;;;;5031835;28;20040;-56
2022/03/22 07:22:01;;;;;;;22.42;12.57;;;;;;;;;;5022455;28;20474;-55
2022/03/22 07:24:27;;;;;;;18.05;12.07;;;;;;;;;;5023450;28;20021;-55
2022/03/22 07:26:52;;;;;;;17.33;11.77;;;;;;;;;;5022581;28;20037;-57
2022/03/22 07:29:19;;;;;;;19.77;12.25;;;;;;;;;;5026423;28;20021;-56
2022/03/22 07:31:45;;;;;;;21.00;12.32;;;;;;;;;;5027198;28;20041;-57
2022/03/22 07:34:15;;;;;;;19.13;11.98;;;;;;;;;;5030506;28;20083;-56
2022/03/22 07:36:46;;;;;;;18.38;11.65;;;;;;;;;;5027963;28;20056;-57
2022/03/22 07:39:13;;;;;;;19.27;11.98;;;;;;;;;;5028171;28;20040;-56
2022/03/22 07:41:43;;;;;;;20.40;12.55;;;;;;;;;;5029424;28;20044;-57
2022/03/22 07:44:12;;;;;;;20.55;12.05;;;;;;;;;;5029221;28;20029;-55
2022/03/22 07:46:38;;;;;;;16.45;12.52;;;;;;;;;;5028504;28;20474;-56
2022/03/22 07:54:33;;;;;;;19.45;12.18;;;;;;;;;;5022847;28;20555;-55
2022/03/22 07:56:59;;;;;;;19.23;12.57;;;;;;;;;;5024668;28;20049;-57
2022/03/22 07:59:27;;;;;;;18.67;12.25;;;;;;;;;;5023126;28;20440;-56
2022/03/22 08:01:53;;;;;;;28.30;18.50;;;;;;;;;;5021180;28;20461;-57
2022/03/22 08:04:19;;;;;;;19.02;13.18;;;;;;;;;;5028183;28;20162;-57
2022/03/22 08:06:45;;;;;;;17.55;11.98;;;;;;;;;;5036518;28;20060;-56
2022/03/22 08:09:11;;;;;;;20.10;12.63;;;;;;;;;;5030765;28;20037;-55
2022/03/22 08:11:39;;;;;;;18.50;11.80;;;;;;;;;;5022908;28;20139;-57
2022/03/22 08:14:05;;;;;;;18.45;12.35;;;;;;;;;;5032015;28;20155;-58
2022/03/22 10:02:35;;;;;;;16.05;12.55;;;;;;;;;;5108761;27;20459;-54
2022/03/22 10:05:01;;;;;;;18.35;12.40;;;;;;;;;;5101396;28;20502;-54
2022/03/22 10:07:27;;;;;;;16.00;11.98;;;;;;;;;;5110070;28;20108;-54
2022/03/22 10:10:02;;;;;;;17.40;12.07;;;;;;;;;;5099211;27;20723;-54
2022/03/22 10:12:31;;;;;;;15.25;11.38;;;;;;;;;;5105536;27;20038;-54
2022/03/22 10:15:08;;;;;;;18.45;11.57;;;;;;;;;;5101910;27;20406;-54
2022/03/22 10:17:35;;;;;;;15.65;11.75;;;;;;;;;;5108881;27;20660;-55
2022/03/22 10:20:01;;;;;;;17.92;12.43;;;;;;;;;;5102250;28;20210;-54
2022/03/22 10:22:27;;;;;;;20.20;12.25;;;;;;;;;;5106152;27;20035;-54
2022/03/22 10:24:57;;;;;;;18.17;13.35;;;;;;;;;;5103029;27;20080;-55
2022/03/22 10:27:27;;;;;;;55.03;38.15;;;;;;;;;;5106989;28;20038;-54
2022/03/22 10:29:56;;;;;;;19.92;13.52;;;;;;;;;;5106469;28;20047;-55
2022/03/22 10:32:51;;;;;;;19.67;13.50;;;;;;;;;;5104145;28;20542;-56
2022/03/22 10:35:25;;;;;;;17.25;12.57;;;;;;;;;;5105676;27;20374;-54
2022/03/22 10:37:52;;;;;;;20.27;12.88;;;;;;;;;;5099299;28;20028;-54
2022/03/22 10:40:42;;;;;;;17.65;12.60;;;;;;;;;;5107626;28;20485;-54
2022/03/22 10:43:09;;;;;;;23.45;12.70;;;;;;;;;;5108652;28;20074;-54
2022/03/22 10:45:46;;;;;;;17.63;11.50;;;;;;;;;;5098450;28;20035;-54
2022/03/22 10:48:23;;;;;;;16.15;10.98;;;;;;;;;;5103174;27;20040;-55
2022/03/22 10:50:49;;;;;;;14.60;10.60;;;;;;;;;;5104924;28;20429;-54
2022/03/22 10:53:16;;;;;;;17.40;10.98;;;;;;;;;;5105021;28;20685;-54
2022/03/22 10:55:44;;;;;;;15.45;10.93;;;;;;;;;;5103929;27;20416;-54
2022/03/22 10:58:11;;;;;;;17.27;11.18;;;;;;;;;;5109823;28;20028;-54
2022/03/22 11:00:38;;;;;;;19.20;10.40;;;;;;;;;;5103237;28;20031;-54
2022/03/22 11:03:05;;;;;;;15.27;11.20;;;;;;;;;;5100485;27;20149;-54
2022/03/22 11:05:33;;;;;;;15.93;11.02;;;;;;;;;;5088875;28;20042;-54
2022/03/22 11:07:59;;;;;;;15.63;10.60;;;;;;;;;;5091505;28;20057;-54
2022/03/22 11:10:29;;;;;;;16.88;11.45;;;;;;;;;;5084859;28;20033;-54
2022/03/22 11:12:55;;;;;;;21.80;11.50;;;;;;;;;;5089062;28;20016;-53
2022/03/22 11:15:22;;;;;;;17.80;11.27;;;;;;;;;;5096883;28;20119;-54
2022/03/22 11:17:51;;;;;;;17.23;11.88;;;;;;;;;;5095075;28;20028;-54
2022/03/22 11:20:17;;;;;;;18.60;11.45;;;;;;;;;;5099595;28;20019;-55
2022/03/22 11:22:50;;;;;;;17.05;11.77;;;;;;;;;;5096904;28;20019;-54
2022/03/22 11:25:34;;;;;;;17.33;13.03;;;;;;;;;;5098547;28;20486;-53
2022/03/22 11:28:10;;;;;;;18.25;11.77;;;;;;;;;;5094048;28;20062;-54
2022/03/22 11:30:37;;;;;;;17.65;12.73;;;;;;;;;;5097247;28;20053;-55
2022/03/22 11:35:50;;;;;;;16.95;11.80;;;;;;;;;;5094426;28;20026;-55
2022/03/22 11:38:35;;;;;;;25.63;13.25;;;;;;;;;;5102026;28;20160;-54
2022/03/22 11:43:48;;;;;;;20.08;12.70;;;;;;;;;;5096405;28;20045;-56
2022/03/22 11:46:14;;;;;;;18.58;13.40;;;;;;;;;;5096638;28;20307;-55
2022/03/22 11:48:40;;;;;;;17.02;13.00;;;;;;;;;;5088730;28;20019;-55
2022/03/22 11:51:08;;;;;;;20.17;13.50;;;;;;;;;;5093363;28;20118;-55
2022/03/22 11:53:42;;;;;;;20.60;13.50;;;;;;;;;;5093357;28;20031;-54
2022/03/22 11:56:08;;;;;;;20.27;13.00;;;;;;;;;;5093980;28;20028;-55
2022/03/22 11:58:34;;;;;;;20.85;13.32;;;;;;;;;;5092739;28;20047;-55
2022/03/22 12:01:01;;;;;;;21.17;13.88;;;;;;;;;;5094288;28;20070;-55
2022/03/22 12:03:31;;;;;;;22.15;13.32;;;;;;;;;;5086718;28;20529;-54
2022/03/22 12:05:58;;;;;;;23.80;14.05;;;;;;;;;;5094360;28;20024;-55
2022/03/22 12:08:26;;;;;;;24.73;14.13;;;;;;;;;;5093626;28;20016;-55
2022/03/22 12:10:53;;;;;;;24.73;13.93;;;;;;;;;;5090075;28;20458;-54
2022/03/22 12:13:20;;;;;;;20.33;14.32;;;;;;;;;;5095693;28;20624;-55
2022/03/22 12:15:47;;;;;;;22.00;14.18;;;;;;;;;;5087075;28;20486;-55
2022/03/22 12:18:13;;;;;;;20.83;13.20;;;;;;;;;;5100297;28;20031;-55
2022/03/22 12:20:39;;;;;;;24.02;14.15;;;;;;;;;;5097059;28;20039;-55
2022/03/22 12:23:06;;;;;;;20.13;13.32;;;;;;;;;;5090018;28;20176;-54
2022/03/22 12:25:36;;;;;;;25.27;13.48;;;;;;;;;;5089794;28;20024;-55
2022/03/22 12:28:07;;;;;;;20.92;13.15;;;;;;;;;;5092106;28;20111;-55
2022/03/22 12:30:35;;;;;;;19.90;13.68;;;;;;;;;;5093343;28;20020;-55
2022/03/22 12:33:03;;;;;;;23.83;13.80;;;;;;;;;;5097075;28;20051;-56
2022/03/22 12:35:29;;;;;;;19.65;13.23;;;;;;;;;;5092096;28;20153;-54
2022/03/22 12:37:57;;;;;;;23.00;14.57;;;;;;;;;;5095366;28;20402;-55
2022/03/22 12:40:23;;;;;;;26.00;14.25;;;;;;;;;;5096637;28;20089;-55
2022/03/22 12:42:50;;;;;;;19.05;13.27;;;;;;;;;;5091066;28;20020;-55
2022/03/22 12:45:17;;;;;;;25.65;13.80;;;;;;;;;;5095435;27;20302;-56
2022/03/22 12:47:44;;;;;;;19.17;13.45;;;;;;;;;;5094739;28;20023;-56
2022/03/22 12:50:11;;;;;;;19.17;13.27;;;;;;;;;;5092586;28;20020;-54
2022/03/22 12:52:37;;;;;;;20.75;13.50;;;;;;;;;;5097507;28;20019;-55
2022/03/22 12:55:04;;;;;;;22.05;13.73;;;;;;;;;;5094504;28;20027;-56
2022/03/22 12:57:30;;;;;;;26.35;13.63;;;;;;;;;;5088670;28;20673;-54
2022/03/22 12:59:56;;;;;;;19.17;12.93;;;;;;;;;;5096617;28;20103;-54
2022/03/22 13:02:23;;;;;;;19.70;12.98;;;;;;;;;;5090298;28;20031;-55
2022/03/22 13:04:50;;;;;;;19.52;12.95;;;;;;;;;;5095611;28;20032;-56
2022/03/22 13:07:26;;;;;;;112.15;78.05;;;;;;;;;;5088118;27;20453;-56
2022/03/22 13:12:41;;;;;;;20.10;11.15;;;;;;;;;;5094678;28;20042;-55
2022/03/22 13:15:08;;;;;;;17.23;11.02;;;;;;;;;;5094396;28;20028;-56
2022/03/22 13:17:34;;;;;;;21.02;11.10;;;;;;;;;;5093727;28;20077;-55
2022/03/22 13:20:03;;;;;;;18.25;10.50;;;;;;;;;;5094244;28;20081;-55
2022/03/22 13:22:29;;;;;;;19.52;9.48;;;;;;;;;;5092626;28;20016;-55
2022/03/22 13:25:09;;;;;;;17.60;9.95;;;;;;;;;;5089884;28;20319;-55
2022/03/22 13:27:36;;;;;;;16.13;10.23;;;;;;;;;;5089768;28;20058;-55
2022/03/22 13:30:02;;;;;;;19.23;9.05;;;;;;;;;;5092056;28;20708;-56
2022/03/22 13:32:33;;;;;;;18.38;9.20;;;;;;;;;;5086365;28;20076;-56
2022/03/22 13:35:02;;;;;;;18.55;8.80;;;;;;;;;;5109030;27;20055;-56
2022/03/22 13:37:28;;;;;;;21.45;8.65;;;;;;;;;;5092800;28;20031;-56
2022/03/22 13:40:04;;;;;;;18.98;9.52;;;;;;;;;;5081365;28;20024;-56
2022/03/22 13:42:30;;;;;;;18.95;9.68;;;;;;;;;;5083874;27;20042;-56
2022/03/22 13:44:56;;;;;;;14.77;8.70;;;;;;;;;;5094586;28;20028;-56
2022/03/22 13:47:25;;;;;;;20.50;9.98;;;;;;;;;;5086108;28;20032;-56
2022/03/22 13:49:51;;;;;;;19.77;10.27;;;;;;;;;;5094396;28;20104;-56
2022/03/22 13:52:24;;;;;;;23.58;10.10;;;;;;;;;;5096599;28;20334;-56
2022/03/22 13:54:53;;;;;;;21.48;10.45;;;;;;;;;;5096830;28;20031;-55
2022/03/22 13:57:19;;;;;;;21.77;9.90;;;;;;;;;;5091477;28;20016;-56
2022/03/22 13:59:45;;;;;;;22.40;9.15;;;;;;;;;;5088965;28;20108;-56
2022/03/22 14:02:11;;;;;;;18.95;7.68;;;;;;;;;;5083474;28;20074;-55
2022/03/22 14:04:37;;;;;;;14.38;7.15;;;;;;;;;;5095172;28;20016;-56
2022/03/22 14:07:04;;;;;;;16.77;6.75;;;;;;;;;;5097681;28;20055;-56
2022/03/22 14:09:31;;;;;;;19.95;7.40;;;;;;;;;;5091344;28;20028;-55
2022/03/22 14:11:57;;;;;;;19.77;7.80;;;;;;;;;;5091532;28;20189;-56
2022/03/22 14:14:23;;;;;;;22.25;7.90;;;;;;;;;;5094156;28;20100;-55
2022/03/22 14:16:49;;;;;;;17.58;7.40;;;;;;;;;;5087717;28;20032;-56
2022/03/22 14:19:15;;;;;;;15.18;7.13;;;;;;;;;;5096057;28;20035;-56
2022/03/22 14:21:42;;;;;;;17.00;6.72;;;;;;;;;;5088290;28;20111;-55
2022/03/22 14:24:08;;;;;;;17.80;7.10;;;;;;;;;;5090399;28;20088;-55
2022/03/22 14:26:34;;;;;;;18.67;7.18;;;;;;;;;;5091544;28;20027;-56
2022/03/22 14:29:00;;;;;;;15.10;6.38;;;;;;;;;;5088818;28;20036;-55
2022/03/22 14:31:25;;;;;;;14.10;6.13;;;;;;;;;;5086687;28;20124;-56
2022/03/22 14:33:51;;;;;;;14.80;6.35;;;;;;;;;;5089398;28;20024;-55
2022/03/22 14:36:17;;;;;;;19.33;6.95;;;;;;;;;;5091580;28;20360;-56
2022/03/22 14:38:43;;;;;;;17.42;6.78;;;;;;;;;;5092858;28;20028;-56
2022/03/22 14:41:25;;;;;;;17.92;6.40;;;;;;;;;;5093366;28;20367;-55
2022/03/22 14:43:53;;;;;;;14.85;6.28;;;;;;;;;;5090036;28;20054;-56
2022/03/22 14:46:19;;;;;;;17.02;6.68;;;;;;;;;;5098239;27;20047;-57
2022/03/22 14:48:49;;;;;;;15.02;5.97;;;;;;;;;;5095764;28;20403;-55
2022/03/22 14:51:17;;;;;;;15.32;5.53;;;;;;;;;;5110951;27;20028;-55
2022/03/22 14:59:12;;;;;;;16.33;5.38;;;;;;;;;;5092685;28;20027;-55
2022/03/22 15:01:38;;;;;;;12.13;5.00;;;;;;;;;;5096199;28;20031;-55
2022/03/22 15:04:04;;;;;;;15.52;6.00;;;;;;;;;;5098056;28;20027;-56
2022/03/22 15:06:31;;;;;;;14.43;5.93;;;;;;;;;;5119170;27;20024;-54
2022/03/22 15:08:57;;;;;;;14.93;6.03;;;;;;;;;;5091790;28;20039;-55
2022/03/22 15:11:24;;;;;;;15.85;5.93;;;;;;;;;;5092370;28;20122;-56
2022/03/22 15:13:51;;;;;;;14.55;5.90;;;;;;;;;;5097315;28;20028;-54
2022/03/22 15:16:17;;;;;;;12.77;5.07;;;;;;;;;;5097418;28;20427;-54
2022/03/22 15:18:44;;;;;;;15.32;5.55;;;;;;;;;;5097068;28;20042;-56
2022/03/22 15:21:10;;;;;;;10.65;5.03;;;;;;;;;;5096153;28;20016;-54
2022/03/22 15:23:36;;;;;;;11.50;5.10;;;;;;;;;;5100425;28;20097;-55
2022/03/22 15:26:05;;;;;;;12.15;5.40;;;;;;;;;;5096579;28;20196;-56
2022/03/22 15:28:31;;;;;;;14.57;5.15;;;;;;;;;;5095461;28;20028;-56
2022/03/22 15:30:58;;;;;;;12.93;4.47;;;;;;;;;;5096544;28;20035;-55
2022/03/22 15:33:23;;;;;;;13.40;5.10;;;;;;;;;;5101806;28;20027;-54
2022/03/22 15:35:50;;;;;;;14.23;5.10;;;;;;;;;;5098159;28;20088;-55
2022/03/22 15:38:16;;;;;;;13.35;4.68;;;;;;;;;;5096007;28;20115;-55
2022/03/22 15:40:42;;;;;;;13.27;4.20;;;;;;;;;;5096413;28;20070;-55
2022/03/22 15:43:09;;;;;;;10.43;4.55;;;;;;;;;;5096441;28;20024;-54
2022/03/22 15:45:36;;;;;;;13.85;5.07;;;;;;;;;;5097021;28;20643;-54
2022/03/22 15:48:02;;;;;;;13.35;4.78;;;;;;;;;;5097691;28;20028;-55
2022/03/22 15:50:28;;;;;;;13.98;5.20;;;;;;;;;;5103926;28;20133;-56
2022/03/22 15:52:55;;;;;;;13.80;4.90;;;;;;;;;;5093735;28;20411;-56
2022/03/22 15:55:22;;;;;;;13.60;5.45;;;;;;;;;;5097589;28;20142;-54
2022/03/22 15:57:48;;;;;;;18.63;5.40;;;;;;;;;;5099718;28;20389;-54
2022/03/22 16:00:14;;;;;;;13.50;4.93;;;;;;;;;;5099118;28;20536;-54
2022/03/22 16:02:40;;;;;;;12.07;5.80;;;;;;;;;;5097161;28;20027;-53
2022/03/22 16:05:07;;;;;;;12.27;5.60;;;;;;;;;;5095466;28;20028;-56
2022/03/22 16:07:34;;;;;;;15.57;6.05;;;;;;;;;;5097919;28;20027;-55
2022/03/22 16:10:00;;;;;;;12.27;5.60;;;;;;;;;;5088243;28;20027;-55
2022/03/22 16:12:27;;;;;;;14.45;5.97;;;;;;;;;;5096733;28;20028;-56
2022/03/22 16:14:53;;;;;;;14.30;5.35;;;;;;;;;;5099216;28;20035;-55
2022/03/22 16:17:19;;;;;;;11.63;6.13;;;;;;;;;;5097773;28;20024;-55
2022/03/22 16:19:45;;;;;;;16.42;6.55;;;;;;;;;;5090553;28;20019;-56
2022/03/22 16:22:12;;;;;;;11.85;6.13;;;;;;;;;;5100106;28;20110;-56
2022/03/22 16:24:38;;;;;;;17.15;6.60;;;;;;;;;;5096509;28;20367;-56
2022/03/22 16:27:08;;;;;;;14.30;6.32;;;;;;;;;;5099075;28;20034;-55
2022/03/22 16:29:34;;;;;;;15.98;6.72;;;;;;;;;;5101857;28;20027;-56
2022/03/22 16:32:01;;;;;;;18.65;6.65;;;;;;;;;;5095422;28;20110;-55
2022/03/22 16:37:11;;;;;;;14.27;6.68;;;;;;;;;;5096590;28;20039;-55
2022/03/22 16:39:39;;;;;;;12.20;6.47;;;;;;;;;;5100539;28;20008;-55
2022/03/22 16:42:12;;;;;;;13.57;6.43;;;;;;;;;;5092161;28;20035;-56
2022/03/22 16:44:42;;;;;;;;;;;;;;;;;;5091998;28;20071;-55
2022/03/22 16:47:10;;;;;;;17.05;7.18;;;;;;;;;;5098780;28;20354;-56
2022/03/22 16:49:36;;;;;;;13.85;7.18;;;;;;;;;;5094351;28;20036;-55